createdAt,value
2023-05-21T00:01:43.921Z,18.99
2023-05-21T00:04:15.783Z,18.68
2023-05-21T00:06:44.240Z,18.89
2023-05-21T00:09:14.063Z,18.82
2023-05-21T00:11:42.452Z,18.72
2023-05-21T00:14:10.947Z,18.66
2023-05-21T00:16:39.608Z,18.77
2023-05-21T00:19:08.227Z,18.69
2023-05-21T00:21:36.666Z,18.83
2023-05-21T00:24:05.081Z,18.72
2023-05-21T00:26:34.767Z,18.35
2023-05-21T00:29:03.274Z,18.59
2023-05-21T00:31:33.821Z,18.56
2023-05-21T00:34:02.296Z,18.50
2023-05-21T00:36:31.320Z,18.68
2023-05-21T00:38:59.732Z,18.78
2023-05-21T00:41:30.292Z,18.54
2023-05-21T00:44:00.425Z,18.71
2023-05-21T00:46:29.589Z,18.63
2023-05-21T00:48:59.081Z,18.43
2023-05-21T00:51:30.342Z,18.75
2023-05-21T00:53:59.949Z,18.66
2023-05-21T00:56:29.401Z,18.56
2023-05-21T00:59:00.494Z,18.63
2023-05-21T01:01:34.205Z,18.35
2023-05-21T01:04:04.127Z,18.70
2023-05-21T01:06:34.802Z,18.62
2023-05-21T01:09:06.613Z,18.62
2023-05-21T01:11:42.657Z,18.59
2023-05-21T01:14:15.661Z,18.73
2023-05-21T01:16:48.356Z,18.75
2023-05-21T01:19:20.107Z,18.69
2023-05-21T01:21:53.206Z,18.82
2023-05-21T01:24:24.331Z,18.51
2023-05-21T01:26:54.270Z,18.08
2023-05-21T01:29:24.533Z,18.52
2023-05-21T01:32:01.060Z,18.51
2023-05-21T01:34:37.380Z,18.41
2023-05-21T01:37:19.800Z,18.61
2023-05-21T01:39:58.940Z,18.55
2023-05-21T01:42:30.781Z,18.30
2023-05-21T01:45:04.845Z,18.35
2023-05-21T01:47:35.079Z,18.44
2023-05-21T01:50:04.604Z,18.47
2023-05-21T01:52:33.537Z,18.15
2023-05-21T01:55:04.845Z,18.60
2023-05-21T01:57:33.753Z,18.53
2023-05-21T02:00:02.969Z,18.35
2023-05-21T02:02:32.344Z,18.46
2023-05-21T02:05:04.597Z,18.29
2023-05-21T02:07:34.061Z,18.62
2023-05-21T02:10:04.769Z,18.44
2023-05-21T02:12:33.739Z,18.60
2023-05-21T02:15:03.168Z,18.71
2023-05-21T02:17:34.527Z,18.54
2023-05-21T02:20:11.618Z,18.33
2023-05-21T02:22:41.551Z,18.36
2023-05-21T02:25:14.261Z,18.36
2023-05-21T02:27:44.665Z,18.54
2023-05-21T02:30:16.999Z,18.74
2023-05-21T02:32:49.144Z,18.48
2023-05-21T02:35:18.102Z,18.27
2023-05-21T02:37:46.383Z,18.62
2023-05-21T02:40:16.341Z,18.48
2023-05-21T02:42:44.684Z,18.45
2023-05-21T02:45:14.074Z,18.47
2023-05-21T02:47:43.011Z,18.52
2023-05-21T02:50:11.322Z,18.43
2023-05-21T02:52:39.687Z,18.55
2023-05-21T02:55:09.760Z,18.59
2023-05-21T02:57:40.062Z,18.38
2023-05-21T03:00:10.613Z,18.39
2023-05-21T03:02:38.968Z,18.33
2023-05-21T03:05:08.841Z,18.25
2023-05-21T03:07:37.087Z,18.44
2023-05-21T03:10:06.545Z,18.04
2023-05-21T03:12:34.809Z,18.07
2023-05-21T03:15:04.738Z,18.32
2023-05-21T03:17:33.149Z,18.32
2023-05-21T03:20:01.647Z,18.15
2023-05-21T03:22:29.985Z,18.11
2023-05-21T03:24:58.328Z,18.21
2023-05-21T03:27:27.101Z,18.27
2023-05-21T03:29:56.330Z,18.27
2023-05-21T03:32:26.143Z,18.33
2023-05-21T03:34:54.620Z,18.18
2023-05-21T03:37:22.922Z,18.20
2023-05-21T03:39:51.402Z,18.36
2023-05-21T03:42:19.760Z,18.24
2023-05-21T03:44:48.118Z,18.21
2023-05-21T03:47:16.911Z,18.27
2023-05-21T03:49:47.171Z,18.10
2023-05-21T03:52:18.898Z,18.12
2023-05-21T03:54:48.610Z,18.30
2023-05-21T03:57:17.169Z,18.14
2023-05-21T03:59:45.688Z,18.07
2023-05-21T04:02:14.035Z,18.15
2023-05-21T04:04:43.425Z,17.85
2023-05-21T04:07:15.489Z,17.94
2023-05-21T04:09:43.897Z,18.13
2023-05-21T04:12:12.323Z,18.11
2023-05-21T04:14:41.002Z,18.04
2023-05-21T04:17:09.783Z,18.18
2023-05-21T04:19:38.178Z,18.15
2023-05-21T04:22:06.934Z,18.05
2023-05-21T04:24:38.091Z,18.18
2023-05-21T04:27:07.165Z,18.29
2023-05-21T04:29:35.434Z,17.98
2023-05-21T04:32:03.913Z,17.98
2023-05-21T04:34:34.119Z,18.20
2023-05-21T04:37:03.340Z,18.19
2023-05-21T04:39:32.314Z,18.13
2023-05-21T04:42:03.478Z,18.40
2023-05-21T04:44:31.986Z,18.35
2023-05-21T04:47:01.074Z,18.36
2023-05-21T04:49:30.087Z,18.18
2023-05-21T04:52:02.021Z,18.40
2023-05-21T04:54:30.720Z,18.37
2023-05-21T04:57:00.451Z,18.38
2023-05-21T04:59:30.734Z,18.14
2023-05-21T05:01:59.416Z,18.40
2023-05-21T05:04:28.716Z,18.78
2023-05-21T05:06:57.589Z,18.43
2023-05-21T05:12:11.862Z,18.62
2023-05-21T05:14:49.049Z,18.54
2023-05-21T05:17:19.249Z,18.57
2023-05-21T05:19:48.137Z,18.68
2023-05-21T05:22:17.451Z,18.79
2023-05-21T05:24:48.504Z,18.75
2023-05-21T05:27:31.039Z,18.77
2023-05-21T05:30:05.729Z,18.70
2023-05-21T05:32:37.789Z,18.83
2023-05-21T05:35:09.246Z,18.42
2023-05-21T05:37:38.431Z,18.73
2023-05-21T05:40:12.586Z,18.40
2023-05-21T05:42:41.920Z,18.82
2023-05-21T05:48:20.875Z,18.65
2023-05-21T05:56:47.609Z,18.38
2023-05-21T06:10:15.280Z,18.51
2023-05-21T06:12:47.431Z,19.09
2023-05-21T06:18:13.301Z,19.07
2023-05-21T06:20:43.084Z,18.80
2023-05-21T06:23:15.892Z,18.69
2023-05-21T06:25:46.615Z,19.01
2023-05-21T06:28:16.006Z,19.28
2023-05-21T06:30:44.581Z,19.20
2023-05-21T06:33:13.113Z,19.41
2023-05-21T06:35:41.623Z,19.49
2023-05-21T06:38:09.981Z,19.68
2023-05-21T06:40:38.423Z,19.65
2023-05-21T06:43:08.292Z,19.86
2023-05-21T06:45:36.795Z,19.37
2023-05-21T06:48:06.137Z,19.50
2023-05-21T06:50:34.452Z,19.68
2023-05-21T06:53:02.953Z,19.88
2023-05-21T06:55:31.284Z,20.11
2023-05-21T06:57:59.814Z,20.35
2023-05-21T07:00:32.446Z,20.57
2023-05-21T07:03:00.893Z,20.36
2023-05-21T07:05:29.532Z,20.67
2023-05-21T07:08:00.596Z,20.50
2023-05-21T07:10:28.935Z,21.10
2023-05-21T07:12:57.265Z,20.60
2023-05-21T07:15:25.888Z,20.99
2023-05-21T07:17:58.855Z,21.04
2023-05-21T07:20:28.642Z,21.33
2023-05-21T07:22:58.048Z,21.25
2023-05-21T07:25:27.919Z,21.14
2023-05-21T07:27:57.513Z,21.23
2023-05-21T07:30:26.570Z,21.33
2023-05-21T07:32:57.061Z,21.48
2023-05-21T07:35:26.344Z,22.08
2023-05-21T07:37:54.742Z,21.88
2023-05-21T07:40:23.202Z,22.05
2023-05-21T07:42:54.401Z,21.30
2023-05-21T07:45:22.934Z,22.12
2023-05-21T07:47:51.714Z,22.15
2023-05-21T07:50:24.765Z,21.95
2023-05-21T07:52:53.351Z,22.15
2023-05-21T07:55:22.040Z,22.24
2023-05-21T07:57:53.808Z,22.52
2023-05-21T08:00:25.309Z,22.89
2023-05-21T08:02:53.759Z,23.12
2023-05-21T08:05:24.530Z,23.24
2023-05-21T08:07:53.870Z,23.04
2023-05-21T08:10:27.025Z,22.88
2023-05-21T08:12:56.163Z,23.02
2023-05-21T08:15:25.809Z,22.91
2023-05-21T08:17:54.466Z,23.50
2023-05-21T08:20:24.414Z,22.97
2023-05-21T08:22:53.458Z,22.97
2023-05-21T08:25:23.422Z,23.08
2023-05-21T08:27:52.528Z,23.64
2023-05-21T08:30:21.456Z,23.29
2023-05-21T08:32:50.563Z,23.73
2023-05-21T08:35:20.911Z,23.71
2023-05-21T08:37:53.890Z,23.79
2023-05-21T08:40:22.572Z,24.32
2023-05-21T08:42:53.724Z,24.08
2023-05-21T08:45:25.162Z,24.34
2023-05-21T08:47:58.415Z,23.44
2023-05-21T08:50:31.209Z,23.92
2023-05-21T08:53:19.783Z,24.14
2023-05-21T08:55:58.493Z,23.72
2023-05-21T08:58:27.285Z,23.89
2023-05-21T09:00:57.335Z,23.67
2023-05-21T09:03:26.947Z,23.40
2023-05-21T09:05:56.934Z,23.58
2023-05-21T09:08:36.070Z,23.15
2023-05-21T09:11:05.132Z,24.11
2023-05-21T09:13:38.991Z,24.22
2023-05-21T09:16:14.667Z,23.86
2023-05-21T09:18:43.937Z,23.77
2023-05-21T09:21:26.967Z,23.74
2023-05-21T09:24:02.181Z,23.79
2023-05-21T09:26:30.668Z,23.88
2023-05-21T09:29:01.212Z,23.51
2023-05-21T09:31:31.429Z,23.29
2023-05-21T09:33:59.716Z,24.14
2023-05-21T09:36:29.454Z,23.72
2023-05-21T09:39:00.329Z,24.14
2023-05-21T09:41:36.933Z,24.36
2023-05-21T09:44:05.890Z,24.22
2023-05-21T09:46:40.335Z,23.82
2023-05-21T09:49:23.153Z,24.28
2023-05-21T09:51:51.493Z,24.21
2023-05-21T09:54:24.194Z,24.13
2023-05-21T09:56:53.465Z,24.09
2023-05-21T09:59:22.201Z,23.97
2023-05-21T10:01:55.572Z,24.15
2023-05-21T10:04:24.777Z,24.16
2023-05-21T10:06:53.958Z,23.91
2023-05-21T10:09:24.601Z,24.57
2023-05-21T10:11:55.562Z,24.39
2023-05-21T10:14:26.670Z,24.75
2023-05-21T10:16:57.022Z,25.09
2023-05-21T10:19:26.218Z,24.52
2023-05-21T10:21:57.251Z,24.68
2023-05-21T10:24:28.275Z,24.58
2023-05-21T10:26:57.098Z,24.84
2023-05-21T10:29:26.404Z,24.54
2023-05-21T10:31:56.052Z,25.16
2023-05-21T10:34:25.581Z,24.85
2023-05-21T10:36:55.455Z,24.55
2023-05-21T10:39:25.354Z,25.56
2023-05-21T10:42:07.031Z,25.35
2023-05-21T10:44:53.037Z,25.56
2023-05-21T10:48:17.960Z,25.61
2023-05-21T10:51:21.131Z,26.05
2023-05-21T10:54:23.783Z,26.23
2023-05-21T10:57:14.415Z,25.99
2023-05-21T10:59:47.597Z,26.29
2023-05-21T11:02:19.179Z,26.16
2023-05-21T11:04:50.618Z,26.20
2023-05-21T11:07:25.396Z,25.82
2023-05-21T11:09:56.134Z,26.77
2023-05-21T11:12:27.334Z,27.20
2023-05-21T11:14:59.182Z,26.56
2023-05-21T11:17:44.518Z,26.59
2023-05-21T11:20:15.184Z,25.80
2023-05-21T11:22:43.838Z,27.14
2023-05-21T11:25:12.672Z,27.01
2023-05-21T11:27:43.901Z,26.89
2023-05-21T11:30:17.603Z,27.02
2023-05-21T11:33:19.754Z,27.28
2023-05-21T11:36:00.384Z,26.74
2023-05-21T11:38:31.133Z,27.30
2023-05-21T11:41:05.286Z,26.86
2023-05-21T11:43:35.093Z,27.22
2023-05-21T11:46:04.153Z,27.67
2023-05-21T11:48:35.024Z,27.13
2023-05-21T11:51:05.027Z,26.94
2023-05-21T11:53:33.451Z,26.94
2023-05-21T11:56:05.907Z,27.77
2023-05-21T11:58:36.937Z,27.62
2023-05-21T12:01:06.568Z,27.55
2023-05-21T12:03:41.907Z,27.35
2023-05-21T12:06:10.349Z,27.93
2023-05-21T12:08:39.321Z,27.55
2023-05-21T12:11:07.673Z,27.84
2023-05-21T12:13:37.382Z,28.01
2023-05-21T12:16:07.862Z,28.43
2023-05-21T12:18:37.988Z,28.66
2023-05-21T12:21:06.970Z,28.36
2023-05-21T12:23:35.276Z,28.27
2023-05-21T12:26:04.195Z,28.27
2023-05-21T12:28:33.299Z,28.49
2023-05-21T12:31:02.909Z,27.58
2023-05-21T12:33:35.850Z,28.41
2023-05-21T12:36:04.431Z,28.44
2023-05-21T12:38:32.693Z,27.67
2023-05-21T12:41:05.888Z,28.18
2023-05-21T12:43:34.930Z,28.29
2023-05-21T12:46:04.628Z,26.91
2023-05-21T12:48:32.924Z,28.44
2023-05-21T12:51:01.171Z,28.39
2023-05-21T12:53:38.957Z,28.13
2023-05-21T12:56:11.948Z,27.66
2023-05-21T12:58:40.425Z,28.75
2023-05-21T13:01:11.234Z,28.29
2023-05-21T13:03:42.614Z,28.75
2023-05-21T13:06:10.842Z,29.12
2023-05-21T13:08:39.599Z,29.14
2023-05-21T13:11:07.781Z,28.22
2023-05-21T13:13:35.925Z,28.56
2023-05-21T13:16:04.238Z,29.04
2023-05-21T13:18:33.927Z,28.80
2023-05-21T13:21:02.192Z,29.43
2023-05-21T13:23:30.343Z,29.58
2023-05-21T13:25:58.536Z,29.23
2023-05-21T13:28:26.712Z,29.53
2023-05-21T13:30:56.000Z,29.67
2023-05-21T13:33:24.488Z,29.90
2023-05-21T13:35:54.213Z,28.46
2023-05-21T13:38:22.397Z,29.05
2023-05-21T13:40:50.690Z,30.78
2023-05-21T13:43:18.794Z,30.68
2023-05-21T13:46:06.016Z,29.89
2023-05-21T13:48:34.256Z,30.45
2023-05-21T13:51:03.765Z,30.90
2023-05-21T13:53:32.097Z,32.17
2023-05-21T13:56:00.504Z,31.47
2023-05-21T13:58:34.415Z,31.34
2023-05-21T14:01:03.029Z,30.87
2023-05-21T14:03:31.363Z,31.59
2023-05-21T14:05:59.845Z,31.38
2023-05-21T14:08:29.497Z,32.54
2023-05-21T14:10:57.726Z,31.92
2023-05-21T14:13:27.242Z,32.32
2023-05-21T14:15:55.767Z,32.16
2023-05-21T14:18:23.912Z,32.32
2023-05-21T14:20:52.078Z,32.39
2023-05-21T14:23:20.280Z,32.98
2023-05-21T14:25:49.857Z,31.39
2023-05-21T14:28:18.040Z,32.46
2023-05-21T14:30:46.213Z,32.17
2023-05-21T14:33:14.494Z,32.56
2023-05-21T14:35:44.023Z,32.18
2023-05-21T14:38:12.288Z,32.03
2023-05-21T14:40:40.864Z,32.37
2023-05-21T14:43:10.387Z,31.61
2023-05-21T14:45:38.796Z,31.59
2023-05-21T14:48:09.344Z,31.94
2023-05-21T14:50:37.763Z,31.34
2023-05-21T14:53:06.749Z,32.32
2023-05-21T14:55:37.034Z,31.60
2023-05-21T14:58:06.456Z,32.38
2023-05-21T15:00:37.348Z,32.18
2023-05-21T15:03:06.210Z,32.00
2023-05-21T15:05:34.657Z,31.35
2023-05-21T15:08:03.992Z,30.97
2023-05-21T15:10:32.180Z,30.52
2023-05-21T15:13:00.533Z,31.29
2023-05-21T15:15:28.873Z,30.96
2023-05-21T15:17:58.667Z,32.17
2023-05-21T15:20:26.975Z,31.53
2023-05-21T15:23:05.073Z,32.42
2023-05-21T15:25:43.558Z,32.73
2023-05-21T15:28:12.935Z,31.54
2023-05-21T15:30:41.323Z,32.76
2023-05-21T15:33:12.277Z,32.15
2023-05-21T15:35:41.060Z,32.02
2023-05-21T15:38:09.624Z,32.63
2023-05-21T15:40:40.082Z,32.21
2023-05-21T15:43:08.252Z,32.22
2023-05-21T15:45:36.795Z,31.45
2023-05-21T15:48:05.765Z,32.48
2023-05-21T15:50:36.061Z,33.01
2023-05-21T15:53:05.280Z,33.01
2023-05-21T15:55:34.180Z,32.99
2023-05-21T15:58:04.188Z,33.20
2023-05-21T16:00:32.510Z,32.89
2023-05-21T16:03:00.923Z,32.35
2023-05-21T16:05:29.206Z,32.76
2023-05-21T16:07:58.764Z,32.21
2023-05-21T16:10:29.566Z,32.51
2023-05-21T16:12:57.840Z,32.34
2023-05-21T16:15:26.601Z,32.77
2023-05-21T16:17:54.870Z,32.16
2023-05-21T16:20:23.013Z,32.08
2023-05-21T16:22:51.456Z,31.12
2023-05-21T16:25:21.219Z,32.11
2023-05-21T16:27:49.912Z,31.95
2023-05-21T16:30:18.445Z,31.73
2023-05-21T16:32:46.750Z,31.55
2023-05-21T16:35:15.080Z,31.06
2023-05-21T16:37:43.337Z,31.76
2023-05-21T16:40:13.211Z,31.41
2023-05-21T16:42:43.445Z,30.47
2023-05-21T16:45:19.479Z,30.10
2023-05-21T16:47:48.939Z,30.82
2023-05-21T16:50:17.984Z,29.93
2023-05-21T16:52:46.385Z,28.80
2023-05-21T16:55:14.615Z,29.01
2023-05-21T16:57:44.556Z,28.70
2023-05-21T17:00:15.680Z,28.49
2023-05-21T17:02:44.115Z,27.59
2023-05-21T17:05:12.560Z,27.50
2023-05-21T17:07:40.831Z,26.73
2023-05-21T17:10:10.518Z,26.74
2023-05-21T17:12:39.016Z,26.70
2023-05-21T17:15:09.561Z,26.17
2023-05-21T17:17:37.890Z,26.07
2023-05-21T17:20:08.071Z,25.80
2023-05-21T17:22:36.393Z,25.23
2023-05-21T17:25:04.766Z,25.26
2023-05-21T17:27:33.096Z,25.48
2023-05-21T17:30:01.399Z,24.92
2023-05-21T17:32:31.219Z,24.84
2023-05-21T17:34:59.661Z,25.07
2023-05-21T17:37:28.106Z,24.58
2023-05-21T17:39:57.648Z,24.24
2023-05-21T17:42:26.165Z,24.07
2023-05-21T17:44:55.226Z,24.40
2023-05-21T17:47:23.463Z,24.21
2023-05-21T17:49:53.359Z,24.38
2023-05-21T17:52:21.629Z,23.61
2023-05-21T17:54:49.805Z,23.82
2023-05-21T17:57:19.944Z,23.68
2023-05-21T17:59:48.128Z,23.69
2023-05-21T18:02:16.342Z,23.74
2023-05-21T18:04:44.462Z,23.85
2023-05-21T18:07:13.907Z,23.32
2023-05-21T18:09:42.800Z,23.32
2023-05-21T18:12:11.026Z,23.40
2023-05-21T18:14:39.147Z,23.24
2023-05-21T18:17:07.530Z,23.50
2023-05-21T18:19:35.970Z,23.09
2023-05-21T18:22:04.986Z,23.30
2023-05-21T18:24:36.433Z,23.51
2023-05-21T18:27:04.842Z,23.15
2023-05-21T18:29:33.166Z,23.15
2023-05-21T18:32:01.610Z,23.17
2023-05-21T18:34:30.089Z,22.91
2023-05-21T18:36:58.910Z,22.97
2023-05-21T18:39:28.032Z,23.22
2023-05-21T18:44:29.734Z,23.10
2023-05-21T18:46:58.677Z,22.99
2023-05-21T18:49:27.577Z,22.60
2023-05-21T18:51:55.889Z,22.93
2023-05-21T18:54:24.057Z,22.21
2023-05-21T18:56:52.264Z,22.73
2023-05-21T18:59:21.802Z,22.16
2023-05-21T19:01:50.044Z,22.33
2023-05-21T19:04:19.832Z,22.03
2023-05-21T19:06:48.194Z,22.13
2023-05-21T19:09:16.536Z,22.15
2023-05-21T19:11:45.252Z,22.12
2023-05-21T19:14:13.647Z,22.05
2023-05-21T19:16:43.366Z,22.01
2023-05-21T19:19:11.699Z,21.91
2023-05-21T19:21:40.953Z,21.46
2023-05-21T19:24:11.893Z,21.63
2023-05-21T19:26:40.456Z,21.68
2023-05-21T19:29:09.534Z,21.70
2023-05-21T19:31:39.605Z,21.66
2023-05-21T19:34:10.851Z,21.62
2023-05-21T19:36:52.125Z,21.48
2023-05-21T19:39:21.536Z,21.43
2023-05-21T19:41:49.861Z,21.39
2023-05-21T19:44:21.553Z,21.34
2023-05-21T19:46:50.477Z,21.26
2023-05-21T19:49:29.284Z,21.00
2023-05-21T19:52:00.565Z,21.00
2023-05-21T19:54:29.514Z,21.16
2023-05-21T19:56:59.952Z,20.81
2023-05-21T19:59:30.372Z,20.85
2023-05-21T20:02:00.743Z,20.52
2023-05-21T20:04:34.192Z,20.61
2023-05-21T20:07:03.848Z,20.77
2023-05-21T20:09:32.725Z,20.37
2023-05-21T20:12:02.596Z,20.27
2023-05-21T20:14:33.972Z,20.44
2023-05-21T20:17:07.347Z,20.38
2023-05-21T20:19:39.357Z,20.39
2023-05-21T20:22:08.430Z,20.06
2023-05-21T20:24:37.941Z,20.24
2023-05-21T20:27:08.153Z,20.25
2023-05-21T20:29:37.573Z,20.21
2023-05-21T20:32:13.313Z,20.38
2023-05-21T20:35:01.586Z,20.12
2023-05-21T20:37:34.846Z,20.28
2023-05-21T20:40:04.584Z,20.27
2023-05-21T20:42:35.091Z,20.24
2023-05-21T20:45:04.620Z,20.29
2023-05-21T20:47:33.853Z,20.01
2023-05-21T20:50:04.082Z,20.02
2023-05-21T20:52:32.671Z,19.82
2023-05-21T20:55:01.100Z,20.00
2023-05-21T20:57:30.133Z,20.11
2023-05-21T20:59:58.643Z,19.96
2023-05-21T21:02:28.537Z,19.61
2023-05-21T21:04:58.049Z,19.57
2023-05-21T21:07:30.150Z,19.74
2023-05-21T21:09:58.629Z,19.67
2023-05-21T21:12:27.171Z,19.57
2023-05-21T21:14:58.050Z,19.32
2023-05-21T21:17:26.816Z,19.38
2023-05-21T21:19:55.421Z,19.31
2023-05-21T21:22:23.962Z,19.46
2023-05-21T21:24:53.870Z,19.70
2023-05-21T21:27:24.659Z,19.42
2023-05-21T21:29:53.036Z,19.63
2023-05-21T21:32:22.255Z,19.44
2023-05-21T21:34:50.890Z,19.64
2023-05-21T21:37:19.624Z,19.36
2023-05-21T21:39:48.555Z,19.26
2023-05-21T21:42:18.779Z,19.37
2023-05-21T21:44:47.226Z,19.20
2023-05-21T21:47:15.873Z,19.47
2023-05-21T21:49:44.227Z,19.28
2023-05-21T21:52:14.747Z,19.44
2023-05-21T21:54:43.562Z,19.09
2023-05-21T21:57:12.165Z,19.31
2023-05-21T21:59:43.497Z,19.20
2023-05-21T22:02:12.478Z,19.07
2023-05-21T22:04:40.997Z,19.28
2023-05-21T22:07:10.933Z,19.23
2023-05-21T22:09:39.398Z,19.16
2023-05-21T22:12:08.784Z,19.19
2023-05-21T22:14:37.466Z,19.18
2023-05-21T22:17:08.772Z,19.26
2023-05-21T22:19:37.278Z,19.00
2023-05-21T22:22:06.389Z,19.00
2023-05-21T22:24:34.674Z,18.88
2023-05-21T22:27:03.748Z,19.06
2023-05-21T22:29:32.631Z,18.99
2023-05-21T22:32:02.907Z,18.90
2023-05-21T22:34:38.199Z,18.61
2023-05-21T22:37:07.932Z,18.99
2023-05-21T22:39:36.931Z,18.91
2023-05-21T22:42:07.440Z,18.94
2023-05-21T22:44:36.537Z,19.07
2023-05-21T22:47:07.065Z,18.99
2023-05-21T22:49:38.523Z,18.95
2023-05-21T22:52:10.134Z,18.87
2023-05-21T22:54:39.426Z,18.98
2023-05-21T22:57:09.193Z,19.08
2023-05-21T22:59:38.687Z,18.79
2023-05-21T23:02:08.194Z,18.69
2023-05-21T23:04:43.743Z,18.80
2023-05-21T23:07:13.763Z,18.94
2023-05-21T23:09:42.710Z,18.87
2023-05-21T23:12:12.004Z,18.91
2023-05-21T23:14:41.130Z,18.91
2023-05-21T23:17:13.088Z,18.89
2023-05-21T23:19:44.238Z,18.86
2023-05-21T23:22:13.369Z,19.00
2023-05-21T23:24:42.422Z,19.02
2023-05-21T23:27:10.865Z,19.14
2023-05-21T23:29:39.606Z,19.02
2023-05-21T23:32:09.127Z,18.95
2023-05-21T23:34:37.638Z,19.00
2023-05-21T23:37:09.593Z,19.10
2023-05-21T23:39:38.569Z,19.09
2023-05-21T23:42:08.512Z,18.97
2023-05-21T23:44:37.673Z,19.03
2023-05-21T23:47:06.968Z,19.04
2023-05-21T23:49:35.915Z,19.11
2023-05-21T23:52:04.971Z,19.07
2023-05-21T23:54:35.742Z,19.26
2023-05-21T23:57:05.151Z,19.31
2023-05-21T23:59:34.169Z,19.35
